Time;durP1;ratioP1;P1;durP2;ratioP2;P2;SDS_P1;SDS_P2;PMS_P1;PMS_P2;Temp;Humidity;BMP_temperature;BMP_pressure;BME280_temperature;BME280_humidity;BME280_pressure;Samples;Min_cycle;Max_cycle;Signal;HPM_P1;HPM_P2
2022/09/12 00:00:34;;;;;;;6.03;5.62;;;;;;;14.68;100.00;98713.91;1733478;80;21929;-47
2022/09/12 00:03:00;;;;;;;6.08;5.47;;;;;;;14.69;100.00;98717.48;1731361;80;21077;-47
2022/09/12 00:05:27;;;;;;;4.62;4.42;;;;;;;14.68;100.00;98712.55;1728735;80;21485;-47
2022/09/12 00:07:55;;;;;;;7.10;4.35;;;;;;;14.67;100.00;98708.61;1733029;80;21109;-47
2022/09/12 00:10:21;;;;;;;4.55;4.25;;;;;;;14.66;100.00;98709.09;1733853;80;21482;-48
2022/09/12 00:12:49;;;;;;;3.75;3.62;;;;;;;14.67;100.00;98715.38;1731999;80;21706;-47
2022/09/12 00:15:16;;;;;;;6.05;5.60;;;;;;;14.66;100.00;98714.52;1744141;80;21570;-47
2022/09/12 00:17:43;;;;;;;6.60;5.53;;;;;;;14.66;100.00;98721.28;1735264;80;21485;-48
2022/09/12 00:20:09;;;;;;;7.20;5.70;;;;;;;14.66;100.00;98712.30;1735511;80;21068;-46
2022/09/12 00:22:37;;;;;;;5.85;5.55;;;;;;;14.65;100.00;98720.05;1737587;80;21145;-46
2022/09/12 00:25:05;;;;;;;4.35;4.15;;;;;;;14.63;100.00;98708.50;1739304;80;20963;-46
2022/09/12 00:27:31;;;;;;;5.33;4.87;;;;;;;14.63;100.00;98708.50;1743063;80;20867;-47
2022/09/12 00:29:58;;;;;;;4.42;4.17;;;;;;;14.60;100.00;98712.31;1676757;83;21405;-46
2022/09/12 00:32:24;;;;;;;5.22;4.92;;;;;;;14.59;100.00;98713.30;1742764;80;21013;-46
2022/09/12 00:34:50;;;;;;;5.10;4.80;;;;;;;14.58;100.00;98714.77;1738456;80;22199;-47
2022/09/12 00:37:17;;;;;;;4.35;4.10;;;;;;;14.57;100.00;98706.27;1742133;80;20942;-47
2022/09/12 00:39:45;;;;;;;3.87;3.58;;;;;;;14.57;100.00;98700.85;1672867;83;20898;-47
2022/09/12 00:42:12;;;;;;;4.80;4.40;;;;;;;14.57;100.00;98706.27;1687243;82;20934;-47
2022/09/12 00:44:44;;;;;;;4.30;4.00;;;;;;;14.57;100.00;98704.91;1655515;83;20958;-46
2022/09/12 00:47:24;;;;;;;5.17;4.37;;;;;;;14.57;100.00;98706.27;1661037;83;22204;-47
2022/09/12 00:50:11;;;;;;;5.03;4.72;;;;;;;14.57;100.00;98696.79;1743404;80;21270;-50
2022/09/12 00:52:51;;;;;;;5.22;4.83;;;;;;;14.57;100.00;98700.85;1674961;83;21834;-46
2022/09/12 00:55:23;;;;;;;3.90;3.70;;;;;;;14.54;100.00;98693.00;1741275;80;21140;-47
2022/09/12 00:57:55;;;;;;;5.33;4.22;;;;;;;14.53;100.00;98696.69;1741022;80;20978;-47
2022/09/12 01:00:23;;;;;;;2.60;2.50;;;;;;;14.52;100.00;98706.66;1741319;80;21598;-47
2022/09/12 01:02:54;;;;;;;2.87;2.67;;;;;;;14.51;100.00;98695.94;1739745;80;21228;-46
2022/09/12 01:05:20;;;;;;;2.47;2.37;;;;;;;14.49;100.00;98697.41;1740705;80;21136;-46
2022/09/12 01:07:48;;;;;;;3.83;2.30;;;;;;;14.49;100.00;98695.20;1738340;80;21066;-46
2022/09/12 01:10:15;;;;;;;4.10;3.00;;;;;;;14.48;100.00;98692.98;1736810;80;21050;-47
2022/09/12 01:12:42;;;;;;;3.52;3.05;;;;;;;14.48;100.00;98704.30;1738693;80;21355;-47
2022/09/12 01:15:09;;;;;;;4.22;3.83;;;;;;;14.46;100.00;98703.59;1740836;80;21085;-47
2022/09/12 01:18:17;;;;;;;3.33;3.02;;;;;;;14.45;100.00;98703.22;1737918;80;21171;-47
2022/09/12 01:20:58;;;;;;;2.52;2.33;;;;;;;14.45;100.00;98709.98;1739824;80;21077;-46
2022/09/12 01:23:44;;;;;;;2.75;2.55;;;;;;;14.41;100.00;98703.08;1741122;80;21488;-46
2022/09/12 01:27:00;;;;;;;1.75;1.65;;;;;;;14.37;100.00;98702.45;1738940;80;21100;-46
2022/09/12 01:30:05;;;;;;;4.70;3.15;;;;;;;14.36;100.00;98703.43;1741531;80;21027;-47
2022/09/12 01:33:01;;;;;;;2.52;1.50;;;;;;;14.34;100.00;98702.19;1733369;80;21085;-47
2022/09/12 01:35:47;;;;;;;1.98;1.72;;;;;;;14.34;100.00;98702.69;1716463;80;21050;-47
2022/09/12 01:38:35;;;;;;;2.45;2.35;;;;;;;14.34;100.00;98697.27;1732826;80;21136;-46
2022/09/12 01:41:12;;;;;;;1.95;1.85;;;;;;;14.34;100.00;98706.74;1736721;80;22672;-47
2022/09/12 01:43:49;;;;;;;2.50;1.42;;;;;;;14.31;100.00;98701.07;1734830;80;21088;-47
2022/09/12 01:46:18;;;;;;;3.67;1.47;;;;;;;14.31;100.00;98696.15;1743221;80;21053;-46
2022/09/12 01:49:08;;;;;;;1.47;1.00;;;;;;;14.27;100.00;98691.49;1707100;81;21520;-47
2022/09/12 01:51:40;;;;;;;1.72;1.17;;;;;;;14.26;100.00;98694.31;1736425;80;21081;-46
2022/09/12 01:54:11;;;;;;;1.30;1.20;;;;;;;14.23;100.00;98695.41;1737442;80;21150;-47
2022/09/12 01:56:40;;;;;;;1.30;1.20;;;;;;;14.22;100.00;98688.77;1737854;80;21118;-46
2022/09/12 01:59:27;;;;;;;1.20;1.10;;;;;;;14.21;100.00;98691.09;1733566;80;22255;-45
2022/09/12 02:02:13;;;;;;;2.70;1.35;;;;;;;14.19;100.00;98692.59;1735664;80;21049;-46
2022/09/12 02:05:04;;;;;;;1.92;1.20;;;;;;;14.17;100.00;98686.44;1736031;80;21515;-45
2022/09/12 02:07:50;;;;;;;1.30;1.20;;;;;;;14.16;100.00;98693.31;1738320;80;22606;-45
2022/09/12 02:10:21;;;;;;;2.98;1.22;;;;;;;14.12;100.00;98684.57;1734293;80;21145;-44
2022/09/12 02:13:00;;;;;;;1.15;1.05;;;;;;;14.11;100.00;98690.99;1739569;80;21084;-45
2022/09/12 02:15:32;;;;;;;0.80;0.80;;;;;;;14.07;100.00;98685.44;1724627;80;21148;-45
2022/09/12 02:17:59;;;;;;;1.98;0.70;;;;;;;14.07;100.00;98695.40;1658557;84;21098;-48
2022/09/12 02:20:29;;;;;;;3.20;0.90;;;;;;;14.03;100.00;98691.57;1688409;82;21143;-46
2022/09/12 02:22:56;;;;;;;2.05;0.75;;;;;;;14.03;100.00;98692.92;1698626;82;21078;-46
2022/09/12 02:25:23;;;;;;;1.60;0.80;;;;;;;14.03;100.00;98688.87;1681045;83;21084;-45
2022/09/12 02:27:56;;;;;;;0.82;0.82;;;;;;;14.03;100.00;98694.80;1660897;84;21118;-46
2022/09/12 02:30:22;;;;;;;0.82;0.80;;;;;;;14.01;100.00;98687.28;1730271;81;21093;-46
2022/09/12 02:33:15;;;;;;;2.65;0.90;;;;;;;13.99;100.00;98692.81;1733228;81;22605;-48
2022/09/12 02:35:52;;;;;;;0.65;0.65;;;;;;;13.98;100.00;98686.16;1728389;81;21599;-45
2022/09/12 02:38:44;;;;;;;1.00;0.60;;;;;;;13.94;100.00;98682.86;1728208;81;21089;-46
2022/09/12 02:41:11;;;;;;;1.12;0.68;;;;;;;13.92;100.00;98691.58;1733018;81;21662;-46
2022/09/12 02:43:38;;;;;;;0.70;0.60;;;;;;;13.90;100.00;98685.91;1725089;81;21410;-46
2022/09/12 02:46:09;;;;;;;1.60;0.60;;;;;;;13.88;100.00;98685.16;1664645;84;21190;-45
2022/09/12 02:48:38;;;;;;;1.15;0.40;;;;;;;13.88;100.00;98684.67;1722217;81;21085;-48
2022/09/12 02:51:05;;;;;;;0.47;0.40;;;;;;;13.88;100.00;98686.52;1726893;81;21029;-46
2022/09/12 02:53:32;;;;;;;1.82;0.50;;;;;;;13.85;100.00;98690.34;1658433;84;21086;-46
2022/09/12 02:55:58;;;;;;;2.47;0.50;;;;;;;13.85;100.00;98690.83;1680659;83;21124;-46
2022/09/12 02:58:28;;;;;;;0.50;0.50;;;;;;;13.84;100.00;98690.45;1661461;84;21160;-45
2022/09/12 03:01:15;;;;;;;0.45;0.45;;;;;;;13.82;100.00;98696.47;1684025;83;21081;-45
2022/09/12 03:04:10;;;;;;;0.40;0.40;;;;;;;13.80;100.00;98687.61;1684064;83;21128;-46
2022/09/12 03:06:57;;;;;;;1.05;0.40;;;;;;;13.76;100.00;98691.55;1656966;84;21125;-45
2022/09/12 03:09:44;;;;;;;0.35;0.30;;;;;;;13.72;100.00;98694.97;1730906;81;21119;-47
2022/09/12 03:12:24;;;;;;;0.90;0.60;;;;;;;13.71;100.00;98696.43;1731468;81;21158;-45
2022/09/12 03:15:17;;;;;;;3.62;0.40;;;;;;;13.68;100.00;98692.14;1727316;80;21556;-45
2022/09/12 03:17:56;;;;;;;0.40;0.40;;;;;;;13.69;100.00;98702.47;1732670;80;21459;-47
2022/09/12 03:20:46;;;;;;;0.70;0.40;;;;;;;13.69;100.00;98700.63;1741549;80;21128;-45
2022/09/12 03:23:30;;;;;;;0.40;0.40;;;;;;;13.70;100.00;98692.00;1738021;80;20965;-48
2022/09/12 03:26:02;;;;;;;1.10;0.40;;;;;;;13.70;100.00;98694.22;1741655;80;21740;-46
2022/09/12 03:28:29;;;;;;;0.40;0.40;;;;;;;13.70;100.00;98698.77;1672209;83;21091;-45
2022/09/12 03:30:55;;;;;;;0.40;0.30;;;;;;;13.66;100.00;98694.10;1704419;82;21153;-46
2022/09/12 03:33:23;;;;;;;0.85;0.40;;;;;;;13.63;100.00;98697.89;1736474;80;21062;-46
2022/09/12 03:35:49;;;;;;;1.95;0.30;;;;;;;13.62;100.00;98702.92;1737344;80;21077;-47
2022/09/12 03:38:16;;;;;;;0.20;0.20;;;;;;;13.60;100.00;98699.98;1735264;80;21134;-45
2022/09/12 03:40:42;;;;;;;0.55;0.20;;;;;;;13.59;100.00;98705.88;1673828;83;21398;-47
2022/09/12 03:43:09;;;;;;;0.50;0.20;;;;;;;13.59;100.00;98704.53;1740887;80;21044;-47
2022/09/12 03:45:36;;;;;;;0.20;0.13;;;;;;;13.60;100.00;98709.45;1740223;80;21350;-47
2022/09/12 03:48:04;;;;;;;0.20;0.20;;;;;;;13.58;100.00;98712.76;1736954;80;20942;-47
2022/09/12 03:50:31;;;;;;;0.20;0.13;;;;;;;13.57;100.00;98715.95;1673294;83;21752;-47
2022/09/12 03:53:01;;;;;;;0.82;0.20;;;;;;;13.55;100.00;98717.03;1687024;83;20986;-47
2022/09/12 03:55:28;;;;;;;0.30;0.13;;;;;;;13.52;100.00;98721.34;1681706;83;20911;-47
2022/09/12 03:57:54;;;;;;;0.30;0.10;;;;;;;13.48;100.00;98722.06;1686907;83;21766;-47
2022/09/12 04:00:21;;;;;;;0.72;0.10;;;;;;;13.44;100.00;98712.44;1686836;82;21109;-47
2022/09/12 04:02:47;;;;;;;0.10;0.10;;;;;;;13.41;100.00;98719.45;1683968;83;21755;-47
2022/09/12 04:05:14;;;;;;;1.85;0.10;;;;;;;13.38;100.00;98726.44;1680559;83;21560;-47
2022/09/12 04:07:41;;;;;;;1.12;0.10;;;;;;;13.37;100.00;98726.55;1685280;83;21053;-47
2022/09/12 04:10:08;;;;;;;0.20;0.10;;;;;;;13.35;100.00;98723.98;1682468;83;21446;-47
2022/09/12 04:12:35;;;;;;;0.82;0.10;;;;;;;13.35;100.00;98726.69;1733469;80;21607;-47
2022/09/12 04:15:02;;;;;;;0.17;0.10;;;;;;;13.32;100.00;98722.85;1732778;80;21121;-47
2022/09/12 04:17:28;;;;;;;0.20;0.10;;;;;;;13.31;100.00;98722.47;1727759;82;21053;-47
2022/09/12 04:19:55;;;;;;;0.20;0.00;;;;;;;13.29;100.00;98730.31;1730341;80;21094;-47
2022/09/12 04:22:21;;;;;;;0.05;0.05;;;;;;;13.25;100.00;98728.35;1730505;80;21370;-47
2022/09/12 04:24:47;;;;;;;0.85;0.10;;;;;;;13.20;100.00;98729.17;1734696;80;21042;-47
2022/09/12 04:27:14;;;;;;;1.30;0.10;;;;;;;13.14;100.00;98725.09;1734441;80;21131;-47
2022/09/12 04:29:40;;;;;;;0.28;0.10;;;;;;;13.08;100.00;98740.88;1737112;81;21500;-47
2022/09/12 04:32:06;;;;;;;0.10;0.00;;;;;;;13.04;100.00;98740.72;1729657;80;21034;-47
2022/09/12 04:34:33;;;;;;;0.13;0.00;;;;;;;13.03;100.00;98737.63;1732570;81;21130;-47
2022/09/12 04:36:59;;;;;;;0.10;0.10;;;;;;;13.03;100.00;98737.63;1729018;80;21047;-47
2022/09/12 04:39:26;;;;;;;0.00;0.00;;;;;;;13.01;100.00;98740.96;1737384;80;22218;-47
2022/09/12 04:41:52;;;;;;;0.00;0.00;;;;;;;13.00;100.00;98754.09;1737624;80;21054;-47
2022/09/12 04:44:18;;;;;;;0.10;0.00;;;;;;;12.97;100.00;98744.84;1729382;80;22247;-47
2022/09/12 04:46:47;;;;;;;0.10;0.00;;;;;;;12.95;100.00;98746.80;1736049;80;21073;-47
2022/09/12 04:49:15;;;;;;;1.35;0.00;;;;;;;12.92;100.00;98744.34;1735520;81;21032;-47
2022/09/12 04:51:43;;;;;;;1.12;0.00;;;;;;;12.90;100.00;98748.50;1729152;81;22375;-47
2022/09/12 04:54:16;;;;;;;0.00;0.00;;;;;;;12.89;100.00;98754.88;1726975;81;21579;-47
2022/09/12 04:56:44;;;;;;;0.70;0.00;;;;;;;12.88;100.00;98759.41;1727843;80;21069;-47
2022/09/12 04:59:12;;;;;;;2.85;0.00;;;;;;;12.86;100.00;98763.19;1724461;80;21105;-47
2022/09/12 05:01:39;;;;;;;1.87;0.10;;;;;;;12.85;100.00;98751.52;1664434;83;21085;-47
2022/09/12 05:04:05;;;;;;;0.10;0.00;;;;;;;12.84;100.00;98755.19;1695565;82;21315;-47
2022/09/12 05:06:34;;;;;;;0.00;0.00;;;;;;;12.83;100.00;98750.80;1670008;83;21137;-46
2022/09/12 05:09:01;;;;;;;0.90;0.00;;;;;;;12.81;100.00;98752.73;1670894;83;21037;-47
2022/09/12 05:11:31;;;;;;;0.03;0.00;;;;;;;12.80;100.00;98757.75;1666051;83;21144;-47
2022/09/12 05:13:58;;;;;;;0.80;0.00;;;;;;;12.80;100.00;98759.59;1727443;80;21439;-48
2022/09/12 05:16:25;;;;;;;0.10;0.03;;;;;;;12.81;100.00;98759.97;1727234;81;21131;-48
2022/09/12 05:18:52;;;;;;;1.40;0.13;;;;;;;12.82;100.00;98757.65;1651845;85;21132;-48
2022/09/12 05:21:20;;;;;;;1.17;0.10;;;;;;;12.83;100.00;98758.03;1721255;81;21053;-47
2022/09/12 05:23:49;;;;;;;0.35;0.10;;;;;;;12.83;100.00;98760.73;1724944;81;21093;-48
2022/09/12 05:26:15;;;;;;;0.28;0.10;;;;;;;12.82;100.00;98757.16;1720794;81;21077;-48
2022/09/12 05:28:42;;;;;;;0.10;0.00;;;;;;;12.81;100.00;98762.19;1723517;81;21772;-48
2022/09/12 05:31:17;;;;;;;0.10;0.00;;;;;;;12.79;100.00;98757.38;1718899;81;21430;-48
2022/09/12 05:33:46;;;;;;;0.50;0.10;;;;;;;12.77;100.00;98751.22;1722066;81;21042;-48
2022/09/12 05:36:16;;;;;;;0.10;0.00;;;;;;;12.76;100.00;98749.48;1718383;81;21726;-47
2022/09/12 05:38:43;;;;;;;1.65;0.10;;;;;;;12.76;100.00;98750.01;1725324;81;21367;-48
2022/09/12 05:41:16;;;;;;;0.10;0.10;;;;;;;12.76;100.00;98748.14;1722438;81;22157;-48
2022/09/12 05:43:44;;;;;;;0.42;0.10;;;;;;;12.79;100.00;98751.11;1646683;85;21053;-47
2022/09/12 05:46:14;;;;;;;0.10;0.00;;;;;;;12.79;100.00;98750.63;1646699;85;21117;-48
2022/09/12 05:48:42;;;;;;;0.00;0.00;;;;;;;12.82;100.00;98754.95;1719408;81;21627;-48
2022/09/12 05:51:17;;;;;;;0.00;0.00;;;;;;;12.83;100.00;98752.63;1723017;81;21016;-48
2022/09/12 05:53:42;;;;;;;0.60;0.10;;;;;;;12.86;100.00;98757.30;1726775;81;21081;-48
2022/09/12 05:56:12;;;;;;;0.33;0.10;;;;;;;12.88;100.00;98761.24;1724034;81;21463;-47
2022/09/12 05:58:42;;;;;;;0.10;0.03;;;;;;;12.90;100.00;98753.90;1719700;81;21143;-47
2022/09/12 06:01:12;;;;;;;0.00;0.00;;;;;;;12.91;100.00;98752.06;1728200;81;20934;-48
2022/09/12 06:03:43;;;;;;;0.08;0.00;;;;;;;12.92;100.00;98754.66;1727961;81;21054;-48
2022/09/12 06:06:13;;;;;;;0.20;0.10;;;;;;;12.97;100.00;98743.02;1724108;81;21175;-48
2022/09/12 06:08:42;;;;;;;0.20;0.10;;;;;;;13.03;100.00;98745.73;1726087;81;21156;-48
2022/09/12 06:11:11;;;;;;;0.90;0.08;;;;;;;13.07;100.00;98742.71;1721657;81;21100;-47
2022/09/12 06:13:39;;;;;;;0.10;0.10;;;;;;;13.14;100.00;98750.77;1724074;81;21105;-48
2022/09/12 06:16:09;;;;;;;1.27;0.00;;;;;;;13.19;100.00;98745.00;1730234;80;21102;-48
2022/09/12 06:18:36;;;;;;;0.62;0.03;;;;;;;13.22;100.00;98747.48;1736963;80;21136;-48
2022/09/12 06:21:05;;;;;;;2.17;0.10;;;;;;;13.25;100.00;98746.78;1732585;80;20963;-47
2022/09/12 06:23:32;;;;;;;1.07;0.00;;;;;;;13.28;100.00;98747.02;1730269;80;20979;-47
2022/09/12 06:25:58;;;;;;;0.23;0.10;;;;;;;13.32;100.00;98742.26;1730991;80;20911;-48
2022/09/12 06:28:25;;;;;;;0.03;0.03;;;;;;;13.36;100.00;98749.14;1732729;80;21520;-48
2022/09/12 06:30:52;;;;;;;0.20;0.05;;;;;;;13.40;100.00;98743.41;1736386;80;21109;-47
2022/09/12 06:33:18;;;;;;;0.23;0.10;;;;;;;13.44;100.00;98748.94;1652596;83;22316;-47
2022/09/12 06:35:45;;;;;;;0.15;0.10;;;;;;;13.49;100.00;98753.52;1731943;81;20958;-47
2022/09/12 06:38:11;;;;;;;0.55;0.10;;;;;;;13.51;100.00;98750.70;1738630;80;20970;-48
2022/09/12 06:40:45;;;;;;;0.85;0.10;;;;;;;13.54;100.00;98757.22;1736157;80;21320;-48
2022/09/12 06:43:15;;;;;;;0.65;0.10;;;;;;;13.57;100.00;98758.34;1735570;80;21199;-47
2022/09/12 06:45:49;;;;;;;0.20;0.10;;;;;;;13.61;100.00;98755.77;1732684;80;21057;-47
2022/09/12 06:48:16;;;;;;;0.35;0.10;;;;;;;13.64;100.00;98755.05;1736483;80;20934;-47
2022/09/12 06:50:42;;;;;;;0.17;0.08;;;;;;;13.70;100.00;98761.83;1730743;80;22075;-47
2022/09/12 06:53:09;;;;;;;0.80;0.10;;;;;;;13.73;100.00;98765.66;1730972;80;20915;-47
2022/09/12 06:55:35;;;;;;;0.20;0.10;;;;;;;13.77;100.00;98764.94;1737300;80;22502;-48
2022/09/12 06:58:01;;;;;;;0.10;0.10;;;;;;;13.81;100.00;98763.71;1730453;80;20875;-48
2022/09/12 07:00:28;;;;;;;0.10;0.10;;;;;;;13.85;100.00;98762.52;1730722;80;21011;-47
2022/09/12 07:02:58;;;;;;;0.25;0.10;;;;;;;13.87;100.00;98765.45;1730451;80;20977;-48
2022/09/12 07:05:22;;;;;;;0.20;0.10;;;;;;;13.88;100.00;98764.47;1667526;84;21125;-48
2022/09/12 07:07:49;;;;;;;0.10;0.05;;;;;;;13.89;100.00;98760.78;1729935;80;23191;-47
2022/09/12 07:10:16;;;;;;;0.15;0.10;;;;;;;13.90;100.00;98767.92;1733242;80;21141;-47
2022/09/12 07:12:42;;;;;;;0.47;0.10;;;;;;;13.93;100.00;98763.64;1731659;80;21355;-47
2022/09/12 07:15:10;;;;;;;0.33;0.10;;;;;;;13.97;100.00;98757.48;1735745;80;21104;-47
2022/09/12 07:17:36;;;;;;;2.58;0.10;;;;;;;14.03;100.00;98761.58;1742729;80;21069;-47
2022/09/12 07:20:04;;;;;;;0.10;0.10;;;;;;;14.09;100.00;98761.95;1739107;80;22108;-48
2022/09/12 07:22:31;;;;;;;0.40;0.10;;;;;;;14.14;100.00;98767.86;1741601;80;21144;-46
2022/09/12 07:24:58;;;;;;;0.10;0.10;;;;;;;14.18;100.00;98761.23;1743181;80;21088;-47
2022/09/12 07:27:24;;;;;;;0.37;0.10;;;;;;;14.23;100.00;98760.86;1731224;80;22286;-47
2022/09/12 07:29:51;;;;;;;0.10;0.10;;;;;;;14.27;100.00;98765.92;1737400;80;21077;-47
2022/09/12 07:32:17;;;;;;;0.10;0.10;;;;;;;14.32;100.00;98765.06;1738242;80;21168;-48
2022/09/12 07:34:44;;;;;;;0.10;0.10;;;;;;;14.37;100.00;98765.55;1739551;80;21089;-47
2022/09/12 07:37:11;;;;;;;0.10;0.10;;;;;;;14.42;100.00;98759.81;1734608;80;21732;-48
2022/09/12 07:39:37;;;;;;;0.30;0.10;;;;;;;14.45;100.00;98756.88;1673080;83;21165;-48
2022/09/12 07:42:05;;;;;;;0.98;0.20;;;;;;;14.49;100.00;98760.18;1738665;80;21115;-47
2022/09/12 07:44:32;;;;;;;0.20;0.20;;;;;;;14.53;100.00;98758.97;1736432;80;21131;-47
2022/09/12 07:46:59;;;;;;;0.20;0.20;;;;;;;14.57;100.00;98761.78;1671490;83;21612;-47
2022/09/12 07:49:25;;;;;;;0.20;0.20;;;;;;;14.62;100.00;98765.00;1738329;80;21084;-48
2022/09/12 07:51:52;;;;;;;0.30;0.30;;;;;;;14.66;100.00;98760.55;1741865;80;21394;-47
2022/09/12 07:54:19;;;;;;;0.50;0.30;;;;;;;14.69;100.00;98761.67;1736720;80;21665;-47
2022/09/12 07:56:46;;;;;;;0.50;0.30;;;;;;;14.70;100.00;98763.89;1739483;80;21134;-47
2022/09/12 07:59:12;;;;;;;0.68;0.30;;;;;;;14.70;100.00;98763.89;1736539;80;21025;-48
2022/09/12 08:01:40;;;;;;;0.50;0.50;;;;;;;14.71;100.00;98761.55;1737740;80;21097;-47
2022/09/12 08:04:07;;;;;;;0.30;0.20;;;;;;;14.72;100.00;98756.48;1737194;80;21069;-47
2022/09/12 08:06:34;;;;;;;0.30;0.30;;;;;;;14.73;100.00;98755.00;1740123;80;20942;-47
2022/09/12 08:09:01;;;;;;;0.30;0.20;;;;;;;14.75;100.00;98754.39;1672878;83;21800;-47
2022/09/12 08:11:28;;;;;;;0.70;0.30;;;;;;;14.79;100.00;98756.88;1741356;80;21081;-47
2022/09/12 08:13:56;;;;;;;0.33;0.30;;;;;;;14.83;100.00;98755.12;1742212;80;21179;-47
2022/09/12 08:16:25;;;;;;;0.40;0.23;;;;;;;14.90;100.00;98748.70;1739454;80;21435;-47
2022/09/12 08:18:52;;;;;;;0.20;0.20;;;;;;;14.93;100.00;98751.18;1734630;80;21061;-47
2022/09/12 08:21:25;;;;;;;0.82;0.20;;;;;;;14.96;100.00;98755.87;1728917;80;21136;-47
2022/09/12 08:23:55;;;;;;;1.40;0.20;;;;;;;15.00;100.00;98746.48;1729477;80;21049;-46
2022/09/12 08:26:22;;;;;;;0.20;0.20;;;;;;;15.03;100.00;98747.59;1734624;80;21036;-47
2022/09/12 08:28:49;;;;;;;0.20;0.20;;;;;;;15.04;100.00;98749.33;1733543;80;21104;-46
2022/09/12 08:31:17;;;;;;;0.20;0.10;;;;;;;15.03;100.00;98750.31;1730030;80;21346;-47
2022/09/12 08:33:44;;;;;;;0.10;0.10;;;;;;;15.06;100.00;98748.68;1728850;80;21762;-47
2022/09/12 08:36:20;;;;;;;0.50;0.10;;;;;;;15.11;100.00;98756.45;1666558;84;21521;-47
2022/09/12 08:38:48;;;;;;;0.20;0.10;;;;;;;15.12;100.00;98758.17;1670426;83;21093;-47
2022/09/12 08:41:30;;;;;;;0.20;0.20;;;;;;;15.15;100.00;98751.13;1686285;83;21172;-47
2022/09/12 08:44:43;;;;;;;0.17;0.10;;;;;;;15.16;100.00;98751.49;1681335;83;21072;-46
2022/09/12 08:47:24;;;;;;;0.10;0.10;;;;;;;15.19;100.00;98741.77;1683422;82;21512;-47
2022/09/12 08:50:11;;;;;;;0.30;0.20;;;;;;;15.25;100.00;98745.31;1685666;83;21136;-47
2022/09/12 08:52:58;;;;;;;0.20;0.13;;;;;;;15.32;100.00;98747.02;1682688;83;21117;-47
2022/09/12 08:55:44;;;;;;;0.80;0.10;;;;;;;15.40;100.00;98739.96;1685524;83;21068;-47
2022/09/12 08:58:21;;;;;;;0.28;0.10;;;;;;;15.48;100.00;98742.89;1691971;83;21152;-46
2022/09/12 09:01:27;;;;;;;0.20;0.10;;;;;;;15.55;100.00;98742.42;1731530;80;21313;-47
2022/09/12 09:04:26;;;;;;;;;;;;;;;15.57;100.00;98741.28;1735594;80;21503;-47
2022/09/12 09:07:13;;;;;;;0.17;0.10;;;;;;;15.58;100.00;98740.30;1718993;81;20369;-47
2022/09/12 09:10:17;;;;;;;0.20;0.10;;;;;;;15.57;100.00;98740.45;1732645;81;21683;-47
2022/09/12 09:12:57;;;;;;;0.10;0.10;;;;;;;15.57;100.00;98741.28;1731485;81;21374;-47
2022/09/12 09:15:53;;;;;;;0.20;0.10;;;;;;;15.57;100.00;98745.34;1664770;83;21151;-47
2022/09/12 09:18:22;;;;;;;0.75;0.10;;;;;;;15.60;100.00;98742.88;1736355;81;21188;-46
2022/09/12 09:21:00;;;;;;;0.47;0.10;;;;;;;15.65;100.00;98748.27;1731824;80;20988;-47
2022/09/12 09:23:40;;;;;;;0.62;0.10;;;;;;;15.70;100.00;98745.19;1730222;80;20987;-48
2022/09/12 09:26:25;;;;;;;0.72;0.08;;;;;;;15.76;100.00;98743.30;1668676;84;20975;-48
2022/09/12 09:28:51;;;;;;;0.40;0.10;;;;;;;15.78;100.00;98744.91;1696150;82;21110;-48
2022/09/12 09:31:20;;;;;;;1.05;0.20;;;;;;;15.78;100.00;98748.11;1733107;80;21050;-47
2022/09/12 09:33:50;;;;;;;6.15;0.20;;;;;;;15.76;100.00;98751.44;1735186;80;21253;-47
2022/09/12 09:36:40;;;;;;;0.30;0.10;;;;;;;15.73;100.00;98759.37;1730445;80;21017;-47
2022/09/12 09:39:21;;;;;;;0.20;0.10;;;;;;;15.71;100.00;98765.41;1733200;80;20974;-47
2022/09/12 09:42:15;;;;;;;0.20;0.20;;;;;;;15.66;100.00;98761.34;1673458;80;23334;-47
2022/09/12 09:44:45;;;;;;;0.15;0.10;;;;;;;15.61;100.00;98764.95;1731870;81;21254;-46
2022/09/12 09:47:11;;;;;;;0.28;0.10;;;;;;;15.53;100.00;98764.22;1707821;81;20983;-47
2022/09/12 09:49:37;;;;;;;0.15;0.10;;;;;;;15.48;100.00;98767.82;1730725;80;21093;-46
2022/09/12 09:52:06;;;;;;;0.13;0.10;;;;;;;15.42;100.00;98765.59;1738506;80;20943;-47
2022/09/12 09:54:48;;;;;;;0.20;0.10;;;;;;;15.38;100.00;98778.57;1733290;80;21103;-47
2022/09/12 09:57:37;;;;;;;0.17;0.10;;;;;;;15.31;100.00;98773.78;1732949;80;21463;-47
2022/09/12 10:00:26;;;;;;;0.20;0.20;;;;;;;15.21;100.00;98775.53;1734180;80;21643;-47
2022/09/12 10:03:23;;;;;;;0.70;0.10;;;;;;;15.12;100.00;98779.86;1667019;83;20967;-46
2022/09/12 10:05:54;;;;;;;0.28;0.20;;;;;;;15.00;100.00;98778.14;1665514;84;21133;-47
2022/09/12 10:08:25;;;;;;;0.68;0.10;;;;;;;14.89;100.00;98783.56;1668067;83;21600;-47
2022/09/12 10:11:21;;;;;;;0.25;0.20;;;;;;;14.84;100.00;98787.14;1732690;80;21525;-48
2022/09/12 10:13:56;;;;;;;0.30;0.20;;;;;;;14.78;100.00;98787.16;1735807;80;21018;-46
2022/09/12 10:16:29;;;;;;;0.20;0.20;;;;;;;14.71;100.00;98789.51;1727622;80;21105;-47
2022/09/12 10:18:57;;;;;;;0.33;0.20;;;;;;;14.65;100.00;98783.20;1731573;80;21049;-46
2022/09/12 10:21:31;;;;;;;0.37;0.30;;;;;;;14.58;100.00;98788.75;1734893;80;21666;-48
2022/09/12 10:24:15;;;;;;;0.30;0.20;;;;;;;14.51;100.00;98796.13;1730457;80;21053;-48
2022/09/12 10:26:43;;;;;;;0.40;0.20;;;;;;;14.45;100.00;98792.08;1733720;80;21646;-48
2022/09/12 10:31:12;;;;;;;0.82;0.30;;;;;;;14.36;100.00;98790.92;1754948;79;27657;-47
2022/09/12 10:33:46;;;;;;;0.30;0.20;;;;;;;14.27;100.00;98797.55;1736394;80;21077;-46
2022/09/12 10:36:13;;;;;;;;;;;;;;;14.21;100.00;98796.16;1739341;80;21823;-47
2022/09/12 10:38:53;;;;;;;0.85;0.20;;;;;;;14.15;100.00;98792.59;1738465;80;20156;-47
2022/09/12 10:41:20;;;;;;;0.30;0.20;;;;;;;14.13;100.00;98797.73;1708040;81;20921;-45
2022/09/12 10:43:47;;;;;;;0.10;0.10;;;;;;;14.10;100.00;98798.86;1733106;80;21002;-46
2022/09/12 10:46:19;;;;;;;0.90;0.20;;;;;;;14.10;100.00;98800.22;1703770;80;21046;-45
2022/09/12 10:48:50;;;;;;;0.28;0.10;;;;;;;14.08;100.00;98796.76;1729100;80;22434;-47
2022/09/12 10:51:27;;;;;;;1.40;0.20;;;;;;;14.08;100.00;98803.52;1733498;80;21021;-46
2022/09/12 10:53:59;;;;;;;0.37;0.20;;;;;;;14.09;100.00;98809.31;1733981;80;21144;-47
2022/09/12 10:56:31;;;;;;;0.50;0.20;;;;;;;14.09;100.00;98803.89;1725831;81;21390;-47
2022/09/12 10:59:41;;;;;;;1.27;0.20;;;;;;;14.10;100.00;98813.75;1653070;83;21116;-46
2022/09/12 11:02:29;;;;;;;1.05;0.42;;;;;;;14.10;100.00;98813.75;1713357;81;21178;-46
2022/09/12 11:05:10;;;;;;;0.45;0.20;;;;;;;14.09;100.00;98817.42;1719199;81;21068;-46
2022/09/12 11:07:45;;;;;;;0.20;0.10;;;;;;;14.09;100.00;98814.72;1708743;81;21080;-46
2022/09/12 11:10:38;;;;;;;0.20;0.20;;;;;;;14.08;100.00;98818.89;1719168;81;20926;-46
2022/09/12 11:13:20;;;;;;;0.75;0.20;;;;;;;14.08;100.00;98812.99;1717747;81;21068;-47
2022/09/12 11:16:17;;;;;;;0.30;0.20;;;;;;;14.09;100.00;98814.72;1712852;81;21617;-47
2022/09/12 11:19:08;;;;;;;0.40;0.25;;;;;;;14.11;100.00;98811.41;1688382;82;21139;-47
2022/09/12 11:22:04;;;;;;;0.33;0.20;;;;;;;14.13;100.00;98805.37;1720051;81;21079;-47
2022/09/12 11:25:11;;;;;;;0.30;0.30;;;;;;;14.18;100.00;98807.73;1682977;81;21053;-47
2022/09/12 11:27:59;;;;;;;0.30;0.20;;;;;;;14.22;100.00;98812.77;1719284;81;21046;-45
2022/09/12 11:30:26;;;;;;;0.40;0.28;;;;;;;14.25;100.00;98809.84;1710851;81;21113;-46
2022/09/12 11:33:27;;;;;;;0.20;0.20;;;;;;;14.27;100.00;98810.59;1702746;82;21401;-48
2022/09/12 11:35:56;;;;;;;0.40;0.35;;;;;;;14.29;100.00;98809.12;1705374;81;21055;-46
2022/09/12 11:39:05;;;;;;;1.35;0.40;;;;;;;14.28;100.00;98804.69;1705892;81;21044;-45
2022/09/12 11:41:35;;;;;;;1.70;0.30;;;;;;;14.27;100.00;98805.17;1703289;82;21360;-45
2022/09/12 11:44:35;;;;;;;0.30;0.28;;;;;;;14.25;100.00;98807.13;1701238;82;21083;-45
2022/09/12 11:47:04;;;;;;;0.53;0.30;;;;;;;14.24;100.00;98813.52;1701701;82;21075;-46
2022/09/12 11:49:42;;;;;;;0.23;0.23;;;;;;;14.22;100.00;98815.48;1705934;82;21074;-45
2022/09/12 11:52:22;;;;;;;0.30;0.20;;;;;;;14.23;100.00;98813.64;1706132;82;21113;-46
2022/09/12 11:55:18;;;;;;;0.20;0.20;;;;;;;14.25;100.00;98813.90;1702538;82;21037;-47
2022/09/12 11:57:53;;;;;;;;;;;;;;;14.27;100.00;98813.78;1709152;81;21770;-46